Check out our new PWSWeather beta!
PWSweather.com
Personal Weather Stations
Station Observations
KNCGREEN1000
Bell Orchard Drive, Greensboro, NC 27455

Bell Orchard DriveGreensboro, NC 27455

Lat: 36.132, Lon: -79.8

Elevation: 876

Station Type: Acurite Atlas

Http://www.gilhutcheson.com

High Low Average
Temperature 63.4°F17.4°C 44.2°F6.8°C 55.0°F12.8°C
Dew Point 60.9°F16.1°C 31.9°F-0.1°C 51.7°F10.9°C
Winds 13.0 mph 20.9 kmh Calm Calm 4.0 mph SSW6.4 kmh SSW
Wind Gusts -- -- --
Humidity 100% 59% 90%
Pressure 30.17 in1021.7 mb 29.78 in1008.5 mb -
Precipitation 0.63 in16.0 mm - -
Hour Temp Dew Point Humidity Winds Wind Gusts Pressure Precip Precip Rate Daily Precip Total
12:04 AM 52.2°F11.2°C 51.9°F11.1°C 99% 1.0 mph S1.6 kmh S -- 29.95 in1014.2 mb 0.00 in0.0 mm 0.00 in0.0 mm 0.00 in0.0 mm
12:08 AM 52.5°F11.4°C 52.2°F11.2°C 99% 3.0 mph SSE4.8 kmh SSE -- 29.94 in1013.9 mb 0.00 in0.0 mm 0.00 in0.0 mm 0.00 in0.0 mm
12:14 AM 53.0°F11.7°C 52.8°F11.6°C 99% 6.0 mph S9.7 kmh S -- 29.93 in1013.5 mb 0.00 in0.0 mm 0.00 in0.0 mm 0.00 in0.0 mm
12:19 AM 53.7°F12.1°C 53.5°F11.9°C 99% 7.0 mph SSW11.3 kmh SSW -- 29.93 in1013.5 mb 0.00 in0.0 mm 0.00 in0.0 mm 0.00 in0.0 mm
12:23 AM 54.3°F12.4°C 54.0°F12.2°C 99% 3.0 mph SSW4.8 kmh SSW -- 29.92 in1013.2 mb 0.00 in0.0 mm 0.00 in0.0 mm 0.00 in0.0 mm
12:28 AM 54.8°F12.7°C 54.9°F12.7°C 100% 6.0 mph SSW9.7 kmh SSW -- 29.91 in1012.9 mb 0.00 in0.0 mm 0.00 in0.0 mm 0.00 in0.0 mm
12:34 AM 55.2°F12.9°C 55.2°F12.9°C 100% 8.0 mph S12.9 kmh S -- 29.91 in1012.9 mb 0.00 in0.0 mm 0.00 in0.0 mm 0.00 in0.0 mm
12:39 AM 55.5°F13.1°C 55.6°F13.1°C 100% 6.0 mph SSE9.7 kmh SSE -- 29.90 in1012.5 mb 0.00 in0.0 mm 0.00 in0.0 mm 0.00 in0.0 mm
12:44 AM 55.8°F13.2°C 55.8°F13.2°C 100% 5.0 mph SW8.0 kmh SW -- 29.90 in1012.5 mb 0.00 in0.0 mm 0.00 in0.0 mm 0.00 in0.0 mm
12:49 AM 55.9°F13.3°C 55.9°F13.3°C 100% 9.0 mph S14.5 kmh S -- 29.90 in1012.5 mb 0.00 in0.0 mm 0.00 in0.0 mm 0.00 in0.0 mm
12:54 AM 56.1°F13.4°C 56.1°F13.4°C 100% 11.0 mph SW17.7 kmh SW -- 29.90 in1012.5 mb 0.00 in0.0 mm 0.00 in0.0 mm 0.00 in0.0 mm
12:59 AM 56.3°F13.5°C 56.3°F13.5°C 100% 8.0 mph S12.9 kmh S -- 29.90 in1012.5 mb 0.00 in0.0 mm 0.00 in0.0 mm 0.00 in0.0 mm
01:04 AM 56.4°F13.6°C 56.5°F13.6°C 100% 4.0 mph S6.4 kmh S -- 29.89 in1012.2 mb 0.00 in0.0 mm 0.00 in0.0 mm 0.00 in0.0 mm
01:09 AM 56.6°F13.7°C 56.7°F13.7°C 100% 6.0 mph SSE9.7 kmh SSE -- 29.90 in1012.5 mb 0.00 in0.0 mm 0.00 in0.0 mm 0.00 in0.0 mm
01:13 AM 56.8°F13.8°C 56.8°F13.8°C 100% 4.0 mph S6.4 kmh S -- 29.89 in1012.2 mb 0.00 in0.0 mm 0.00 in0.0 mm 0.00 in0.0 mm
01:19 AM 56.9°F13.8°C 56.8°F13.8°C 100% 4.0 mph S6.4 kmh S -- 29.89 in1012.2 mb 0.00 in0.0 mm 0.00 in0.0 mm 0.00 in0.0 mm
01:24 AM 57.0°F13.9°C 57.0°F13.9°C 100% 5.0 mph S8.0 kmh S -- 29.89 in1012.2 mb 0.00 in0.0 mm 0.00 in0.0 mm 0.00 in0.0 mm
01:29 AM 57.1°F13.9°C 57.0°F13.9°C 100% 9.0 mph S14.5 kmh S -- 29.89 in1012.2 mb 0.00 in0.0 mm 0.00 in0.0 mm 0.00 in0.0 mm
01:34 AM 57.2°F14.0°C 57.2°F14.0°C 100% 6.0 mph S9.7 kmh S -- 29.89 in1012.2 mb 0.00 in0.0 mm 0.00 in0.0 mm 0.00 in0.0 mm
01:39 AM 57.3°F14.1°C 57.4°F14.1°C 100% 4.0 mph SSW6.4 kmh SSW -- 29.89 in1012.2 mb 0.00 in0.0 mm 0.00 in0.0 mm 0.00 in0.0 mm
01:44 AM 57.5°F14.2°C 57.6°F14.2°C 100% 8.0 mph S12.9 kmh S -- 29.89 in1012.2 mb 0.00 in0.0 mm 0.00 in0.0 mm 0.00 in0.0 mm
01:49 AM 57.5°F14.2°C 57.6°F14.2°C 100% 10.0 mph S16.1 kmh S -- 29.89 in1012.2 mb 0.00 in0.0 mm 0.00 in0.0 mm 0.00 in0.0 mm
01:54 AM 57.6°F14.2°C 57.6°F14.2°C 100% 2.0 mph S3.2 kmh S -- 29.89 in1012.2 mb 0.00 in0.0 mm 0.00 in0.0 mm 0.00 in0.0 mm
01:59 AM 57.7°F14.3°C 57.7°F14.3°C 100% 2.0 mph SSW3.2 kmh SSW -- 29.90 in1012.5 mb 0.00 in0.0 mm 0.00 in0.0 mm 0.00 in0.0 mm
02:04 AM 58.0°F14.4°C 57.9°F14.4°C 100% 1.0 mph SSW1.6 kmh SSW -- 29.90 in1012.5 mb 0.00 in0.0 mm 0.00 in0.0 mm 0.00 in0.0 mm
02:09 AM 57.3°F14.1°C 57.4°F14.1°C 100% 2.0 mph WNW3.2 kmh WNW -- 29.90 in1012.5 mb 0.00 in0.0 mm 0.00 in0.0 mm 0.00 in0.0 mm
02:14 AM 56.8°F13.8°C 56.8°F13.8°C 100% 4.0 mph WSW6.4 kmh WSW -- 29.89 in1012.2 mb 0.00 in0.0 mm 0.00 in0.0 mm 0.00 in0.0 mm
02:19 AM 56.3°F13.5°C 56.0°F13.3°C 99% 3.0 mph NW4.8 kmh NW -- 29.89 in1012.2 mb 0.00 in0.0 mm 0.00 in0.0 mm 0.00 in0.0 mm
02:24 AM 54.8°F12.7°C 54.6°F12.6°C 99% 2.0 mph E3.2 kmh E -- 29.90 in1012.5 mb 0.00 in0.0 mm 0.00 in0.0 mm 0.00 in0.0 mm
02:28 AM 54.1°F12.3°C 53.9°F12.2°C 99% 2.0 mph NNW3.2 kmh NNW -- 29.89 in1012.2 mb 0.00 in0.0 mm 0.00 in0.0 mm 0.00 in0.0 mm
02:34 AM 53.4°F11.9°C 53.1°F11.7°C 99% 7.0 mph N11.3 kmh N -- 29.89 in1012.2 mb 0.00 in0.0 mm 0.00 in0.0 mm 0.00 in0.0 mm
02:39 AM 52.5°F11.4°C 52.2°F11.2°C 99% 2.0 mph NNW3.2 kmh NNW -- 29.90 in1012.5 mb 0.00 in0.0 mm 0.00 in0.0 mm 0.00 in0.0 mm
02:43 AM 52.2°F11.2°C 51.9°F11.1°C 99% Calm Calm -- 29.89 in1012.2 mb 0.00 in0.0 mm 0.00 in0.0 mm 0.00 in0.0 mm
02:49 AM 52.0°F11.1°C 51.7°F10.9°C 99% 2.0 mph NE3.2 kmh NE -- 29.89 in1012.2 mb 0.00 in0.0 mm 0.00 in0.0 mm 0.00 in0.0 mm
02:54 AM 51.9°F11.1°C 51.7°F10.9°C 99% 2.0 mph NNW3.2 kmh NNW -- 29.89 in1012.2 mb 0.00 in0.0 mm 0.00 in0.0 mm 0.00 in0.0 mm
02:59 AM 51.5°F10.8°C 51.2°F10.7°C 99% 7.0 mph N11.3 kmh N -- 29.89 in1012.2 mb 0.00 in0.0 mm 0.00 in0.0 mm 0.00 in0.0 mm
03:04 AM 50.8°F10.4°C 50.4°F10.2°C 99% 4.0 mph NW6.4 kmh NW -- 29.90 in1012.5 mb 0.00 in0.0 mm 0.00 in0.0 mm 0.00 in0.0 mm
03:09 AM 50.3°F10.2°C 50.1°F10.1°C 99% 6.0 mph N9.7 kmh N -- 29.90 in1012.5 mb 0.00 in0.0 mm 0.00 in0.0 mm 0.00 in0.0 mm
03:14 AM 50.0°F10.0°C 49.7°F9.8°C 99% 6.0 mph N9.7 kmh N -- 29.90 in1012.5 mb 0.00 in0.0 mm 0.00 in0.0 mm 0.00 in0.0 mm
03:19 AM 49.7°F9.8°C 49.4°F9.7°C 99% 10.0 mph N16.1 kmh N -- 29.90 in1012.5 mb 0.00 in0.0 mm 0.00 in0.0 mm 0.00 in0.0 mm
03:24 AM 49.0°F9.4°C 48.6°F9.2°C 99% 4.0 mph NNW6.4 kmh NNW -- 29.90 in1012.5 mb 0.00 in0.0 mm 0.00 in0.0 mm 0.00 in0.0 mm
03:29 AM 48.8°F9.3°C 48.5°F9.2°C 99% 9.0 mph NNW14.5 kmh NNW -- 29.90 in1012.5 mb 0.00 in0.0 mm 0.00 in0.0 mm 0.00 in0.0 mm
03:33 AM 48.5°F9.2°C 48.3°F9.1°C 99% 2.0 mph SSE3.2 kmh SSE -- 29.90 in1012.5 mb 0.00 in0.0 mm 0.00 in0.0 mm 0.00 in0.0 mm
03:38 AM 48.4°F9.1°C 48.1°F8.9°C 99% 2.0 mph NW3.2 kmh NW -- 29.89 in1012.2 mb 0.00 in0.0 mm 0.00 in0.0 mm 0.00 in0.0 mm
03:44 AM 48.4°F9.1°C 48.1°F8.9°C 99% 3.0 mph NW4.8 kmh NW -- 29.89 in1012.2 mb 0.00 in0.0 mm 0.00 in0.0 mm 0.00 in0.0 mm
03:49 AM 48.2°F9.0°C 47.9°F8.8°C 99% 2.0 mph N3.2 kmh N -- 29.89 in1012.2 mb 0.00 in0.0 mm 0.00 in0.0 mm 0.00 in0.0 mm
03:54 AM 48.3°F9.1°C 48.1°F8.9°C 99% 2.0 mph NE3.2 kmh NE -- 29.89 in1012.2 mb 0.00 in0.0 mm 0.00 in0.0 mm 0.00 in0.0 mm
03:59 AM 48.1°F8.9°C 47.7°F8.7°C 99% Calm Calm -- 29.88 in1011.9 mb 0.00 in0.0 mm 0.00 in0.0 mm 0.00 in0.0 mm
04:04 AM 48.2°F9.0°C 47.9°F8.8°C 99% Calm Calm -- 29.88 in1011.9 mb 0.00 in0.0 mm 0.00 in0.0 mm 0.00 in0.0 mm
04:09 AM 48.3°F9.1°C 48.1°F8.9°C 99% Calm Calm -- 29.87 in1011.5 mb 0.00 in0.0 mm 0.00 in0.0 mm 0.00 in0.0 mm
04:14 AM 48.2°F9.0°C 47.9°F8.8°C 99% Calm Calm -- 29.86 in1011.2 mb 0.00 in0.0 mm 0.00 in0.0 mm 0.00 in0.0 mm
04:18 AM 48.2°F9.0°C 47.9°F8.8°C 99% 1.0 mph SE1.6 kmh SE -- 29.86 in1011.2 mb 0.00 in0.0 mm 0.00 in0.0 mm 0.00 in0.0 mm
04:24 AM 48.3°F9.1°C 48.1°F8.9°C 99% Calm Calm -- 29.86 in1011.2 mb 0.00 in0.0 mm 0.00 in0.0 mm 0.00 in0.0 mm
04:29 AM 48.3°F9.1°C 48.4°F9.1°C 100% Calm Calm -- 29.86 in1011.2 mb 0.00 in0.0 mm 0.00 in0.0 mm 0.00 in0.0 mm
04:34 AM 48.4°F9.1°C 48.4°F9.1°C 100% Calm Calm -- 29.85 in1010.8 mb 0.00 in0.0 mm 0.00 in0.0 mm 0.00 in0.0 mm
04:38 AM 48.3°F9.1°C 48.4°F9.1°C 100% Calm Calm -- 29.85 in1010.8 mb 0.00 in0.0 mm 0.00 in0.0 mm 0.00 in0.0 mm
04:44 AM 48.2°F9.0°C 47.9°F8.8°C 99% Calm Calm -- 29.85 in1010.8 mb 0.00 in0.0 mm 0.00 in0.0 mm 0.00 in0.0 mm
04:48 AM 48.5°F9.2°C 48.6°F9.2°C 100% Calm Calm -- 29.85 in1010.8 mb 0.00 in0.0 mm 0.00 in0.0 mm 0.00 in0.0 mm
04:54 AM 48.4°F9.1°C 48.4°F9.1°C 100% 2.0 mph NE3.2 kmh NE -- 29.85 in1010.8 mb 0.00 in0.0 mm 0.00 in0.0 mm 0.00 in0.0 mm
04:59 AM 48.5°F9.2°C 48.6°F9.2°C 100% 3.0 mph NNW4.8 kmh NNW -- 29.86 in1011.2 mb 0.00 in0.0 mm 0.00 in0.0 mm 0.00 in0.0 mm
05:03 AM 48.4°F9.1°C 48.4°F9.1°C 100% 3.0 mph NE4.8 kmh NE -- 29.86 in1011.2 mb 0.00 in0.0 mm 0.00 in0.0 mm 0.00 in0.0 mm
05:09 AM 48.2°F9.0°C 47.9°F8.8°C 99% 4.0 mph NNE6.4 kmh NNE -- 29.85 in1010.8 mb 0.00 in0.0 mm 0.00 in0.0 mm 0.00 in0.0 mm
05:13 AM 48.1°F8.9°C 47.7°F8.7°C 99% 5.0 mph NE8.0 kmh NE -- 29.86 in1011.2 mb 0.00 in0.0 mm 0.00 in0.0 mm 0.00 in0.0 mm
05:19 AM 48.0°F8.9°C 47.7°F8.7°C 99% 4.0 mph N6.4 kmh N -- 29.86 in1011.2 mb 0.00 in0.0 mm 0.00 in0.0 mm 0.00 in0.0 mm
05:24 AM 48.0°F8.9°C 47.7°F8.7°C 99% 3.0 mph NW4.8 kmh NW -- 29.86 in1011.2 mb 0.00 in0.0 mm 0.00 in0.0 mm 0.00 in0.0 mm
05:29 AM 48.0°F8.9°C 47.7°F8.7°C 99% 2.0 mph E3.2 kmh E -- 29.86 in1011.2 mb 0.00 in0.0 mm 0.00 in0.0 mm 0.00 in0.0 mm
05:33 AM 48.2°F9.0°C 47.9°F8.8°C 99% 2.0 mph N3.2 kmh N -- 29.85 in1010.8 mb 0.00 in0.0 mm 0.00 in0.0 mm 0.00 in0.0 mm
05:39 AM 48.2°F9.0°C 47.9°F8.8°C 99% 3.0 mph N4.8 kmh N -- 29.85 in1010.8 mb 0.00 in0.0 mm 0.00 in0.0 mm 0.00 in0.0 mm
05:44 AM 48.3°F9.1°C 48.1°F8.9°C 99% 4.0 mph NW6.4 kmh NW -- 29.85 in1010.8 mb 0.00 in0.0 mm 0.00 in0.0 mm 0.00 in0.0 mm
05:49 AM 48.3°F9.1°C 48.1°F8.9°C 99% 2.0 mph SE3.2 kmh SE -- 29.85 in1010.8 mb 0.00 in0.0 mm 0.00 in0.0 mm 0.00 in0.0 mm
05:54 AM 48.4°F9.1°C 48.1°F8.9°C 99% 2.0 mph SW3.2 kmh SW -- 29.85 in1010.8 mb 0.00 in0.0 mm 0.00 in0.0 mm 0.00 in0.0 mm
05:59 AM 48.4°F9.1°C 48.1°F8.9°C 99% 1.0 mph ENE1.6 kmh ENE -- 29.85 in1010.8 mb 0.01 in0.3 mm 0.12 in3.0 mm 0.01 in0.3 mm
06:04 AM 48.5°F9.2°C 48.3°F9.1°C 99% 2.0 mph ENE3.2 kmh ENE -- 29.85 in1010.8 mb 0.01 in0.3 mm 0.00 in0.0 mm 0.01 in0.3 mm
06:09 AM 48.8°F9.3°C 48.5°F9.2°C 99% 2.0 mph NW3.2 kmh NW -- 29.85 in1010.8 mb 0.01 in0.3 mm 0.00 in0.0 mm 0.01 in0.3 mm
06:13 AM 49.1°F9.5°C 48.8°F9.3°C 99% 3.0 mph N4.8 kmh N -- 29.84 in1010.5 mb 0.02 in0.5 mm 0.15 in3.8 mm 0.02 in0.5 mm
06:19 AM 49.4°F9.7°C 49.5°F9.7°C 100% 1.0 mph SSE1.6 kmh SSE -- 29.84 in1010.5 mb 0.02 in0.5 mm 0.00 in0.0 mm 0.02 in0.5 mm
06:24 AM 49.6°F9.8°C 49.4°F9.7°C 99% Calm Calm -- 29.85 in1010.8 mb 0.02 in0.5 mm 0.00 in0.0 mm 0.02 in0.5 mm
06:29 AM 49.5°F9.7°C 49.2°F9.6°C 99% Calm Calm -- 29.85 in1010.8 mb 0.02 in0.5 mm 0.00 in0.0 mm 0.02 in0.5 mm
06:34 AM 49.7°F9.8°C 49.4°F9.7°C 99% Calm Calm -- 29.84 in1010.5 mb 0.02 in0.5 mm 0.00 in0.0 mm 0.02 in0.5 mm
06:39 AM 49.9°F9.9°C 49.5°F9.7°C 99% Calm Calm -- 29.84 in1010.5 mb 0.03 in0.8 mm 0.12 in3.0 mm 0.03 in0.8 mm
06:43 AM 49.9°F9.9°C 49.5°F9.7°C 99% Calm Calm -- 29.84 in1010.5 mb 0.03 in0.8 mm 0.00 in0.0 mm 0.03 in0.8 mm
06:49 AM 50.0°F10.0°C 49.7°F9.8°C 99% Calm Calm -- 29.84 in1010.5 mb 0.04 in1.0 mm 0.10 in2.5 mm 0.04 in1.0 mm
06:54 AM 50.2°F10.1°C 50.2°F10.1°C 100% 3.0 mph S4.8 kmh S -- 29.84 in1010.5 mb 0.04 in1.0 mm 0.00 in0.0 mm 0.05 in1.3 mm
06:58 AM 50.4°F10.2°C 50.1°F10.1°C 99% 2.0 mph NE3.2 kmh NE -- 29.85 in1010.8 mb 0.04 in1.0 mm 0.00 in0.0 mm 0.05 in1.3 mm
07:04 AM 51.0°F10.6°C 51.1°F10.6°C 100% 3.0 mph NW4.8 kmh NW -- 29.83 in1010.2 mb 0.04 in1.0 mm 0.00 in0.0 mm 0.06 in1.5 mm
07:08 AM 51.1°F10.6°C 51.1°F10.6°C 100% 1.0 mph SW1.6 kmh SW -- 29.84 in1010.5 mb 0.06 in1.5 mm 0.30 in7.6 mm 0.08 in2.0 mm
07:14 AM 51.5°F10.8°C 51.4°F10.8°C 100% 1.0 mph SSE1.6 kmh SSE -- 29.84 in1010.5 mb 0.08 in2.0 mm 0.20 in5.1 mm 0.10 in2.5 mm
07:19 AM 51.5°F10.8°C 51.4°F10.8°C 100% 2.0 mph WSW3.2 kmh WSW -- 29.84 in1010.5 mb 0.09 in2.3 mm 0.12 in3.0 mm 0.11 in2.8 mm
07:23 AM 51.4°F10.8°C 51.4°F10.8°C 100% 1.0 mph S1.6 kmh S -- 29.85 in1010.8 mb 0.10 in2.5 mm 0.15 in3.8 mm 0.12 in3.0 mm
07:28 AM 51.7°F10.9°C 51.6°F10.9°C 100% Calm Calm -- 29.85 in1010.8 mb 0.12 in3.0 mm 0.24 in6.1 mm 0.14 in3.6 mm
07:34 AM 52.1°F11.2°C 52.2°F11.2°C 100% Calm Calm -- 29.85 in1010.8 mb 0.13 in3.3 mm 0.10 in2.5 mm 0.16 in4.1 mm
07:39 AM 52.7°F11.5°C 52.7°F11.5°C 100% 2.0 mph SSW3.2 kmh SSW -- 29.85 in1010.8 mb 0.14 in3.6 mm 0.12 in3.0 mm 0.17 in4.3 mm
07:44 AM 53.2°F11.8°C 53.2°F11.8°C 100% 3.0 mph SSW4.8 kmh SSW -- 29.86 in1011.2 mb 0.14 in3.6 mm 0.00 in0.0 mm 0.18 in4.6 mm
07:49 AM 53.7°F12.1°C 53.8°F12.1°C 100% 2.0 mph SSW3.2 kmh SSW -- 29.87 in1011.5 mb 0.14 in3.6 mm 0.00 in0.0 mm 0.18 in4.6 mm
07:54 AM 54.3°F12.4°C 54.3°F12.4°C 100% Calm Calm -- 29.87 in1011.5 mb 0.13 in3.3 mm 0.00 in0.0 mm 0.19 in4.8 mm
07:59 AM 54.6°F12.6°C 54.7°F12.6°C 100% Calm Calm -- 29.86 in1011.2 mb 0.13 in3.3 mm 0.00 in0.0 mm 0.19 in4.8 mm
08:04 AM 55.0°F12.8°C 55.0°F12.8°C 100% 2.0 mph SW3.2 kmh SW -- 29.86 in1011.2 mb 0.10 in2.5 mm 0.00 in0.0 mm 0.19 in4.8 mm
08:08 AM 55.2°F12.9°C 55.2°F12.9°C 100% 3.0 mph SW4.8 kmh SW -- 29.86 in1011.2 mb 0.10 in2.5 mm 0.00 in0.0 mm 0.19 in4.8 mm
08:14 AM 55.5°F13.1°C 55.6°F13.1°C 100% 2.0 mph SSW3.2 kmh SSW -- 29.86 in1011.2 mb 0.07 in1.8 mm 0.00 in0.0 mm 0.19 in4.8 mm
08:19 AM 55.6°F13.1°C 55.6°F13.1°C 100% 1.0 mph S1.6 kmh S -- 29.85 in1010.8 mb 0.08 in2.0 mm 0.12 in3.0 mm 0.20 in5.1 mm
08:24 AM 55.7°F13.2°C 55.8°F13.2°C 100% Calm Calm -- 29.85 in1010.8 mb 0.05 in1.3 mm 0.00 in0.0 mm 0.20 in5.1 mm
08:29 AM 55.8°F13.2°C 55.8°F13.2°C 100% 1.0 mph SW1.6 kmh SW -- 29.85 in1010.8 mb 0.06 in1.5 mm 0.12 in3.0 mm 0.21 in5.3 mm
08:34 AM 55.8°F13.2°C 55.8°F13.2°C 100% 2.0 mph S3.2 kmh S -- 29.86 in1011.2 mb 0.04 in1.0 mm 0.00 in0.0 mm 0.22 in5.6 mm
08:38 AM 56.1°F13.4°C 56.1°F13.4°C 100% 2.0 mph S3.2 kmh S -- 29.86 in1011.2 mb 0.06 in1.5 mm 0.30 in7.6 mm 0.24 in6.1 mm
08:43 AM 56.4°F13.6°C 56.5°F13.6°C 100% 2.0 mph S3.2 kmh S -- 29.87 in1011.5 mb 0.08 in2.0 mm 0.24 in6.1 mm 0.27 in6.9 mm
08:44 AM 56.4°F13.6°C 56.5°F13.6°C 100% 3.0 mph NNE4.8 kmh NNE -- 29.87 in1011.5 mb 0.08 in2.0 mm 0.00 in0.0 mm 0.27 in6.9 mm
08:49 AM 57.0°F13.9°C 57.0°F13.9°C 100% 1.0 mph SSW1.6 kmh SSW -- 29.87 in1011.5 mb 0.10 in2.5 mm 0.24 in6.1 mm 0.29 in7.4 mm
08:53 AM 57.4°F14.1°C 57.4°F14.1°C 100% 2.0 mph W3.2 kmh W -- 29.87 in1011.5 mb 0.11 in2.8 mm 0.15 in3.8 mm 0.30 in7.6 mm
08:59 AM 57.5°F14.2°C 57.6°F14.2°C 100% 1.0 mph SSE1.6 kmh SSE -- 29.86 in1011.2 mb 0.12 in3.0 mm 0.10 in2.5 mm 0.31 in7.9 mm
09:03 AM 57.7°F14.3°C 57.7°F14.3°C 100% 1.0 mph S1.6 kmh S -- 29.86 in1011.2 mb 0.12 in3.0 mm 0.00 in0.0 mm 0.31 in7.9 mm
09:09 AM 57.8°F14.3°C 57.7°F14.3°C 100% 2.0 mph SSW3.2 kmh SSW -- 29.86 in1011.2 mb 0.13 in3.3 mm 0.10 in2.5 mm 0.32 in8.1 mm
09:14 AM 57.9°F14.4°C 57.9°F14.4°C 100% 2.0 mph NW3.2 kmh NW -- 29.87 in1011.5 mb 0.13 in3.3 mm 0.00 in0.0 mm 0.33 in8.4 mm
09:18 AM 58.0°F14.4°C 57.9°F14.4°C 100% 2.0 mph S3.2 kmh S -- 29.86 in1011.2 mb 0.14 in3.6 mm 0.15 in3.8 mm 0.34 in8.6 mm
09:23 AM 58.0°F14.4°C 57.9°F14.4°C 100% 3.0 mph WSW4.8 kmh WSW -- 29.85 in1010.8 mb 0.13 in3.3 mm 0.00 in0.0 mm 0.35 in8.9 mm
09:29 AM 58.3°F14.6°C 58.3°F14.6°C 100% 1.0 mph S1.6 kmh S -- 29.86 in1011.2 mb 0.13 in3.3 mm 0.00 in0.0 mm 0.35 in8.9 mm
09:34 AM 58.4°F14.7°C 58.5°F14.7°C 100% 3.0 mph S4.8 kmh S -- 29.85 in1010.8 mb 0.10 in2.5 mm 0.00 in0.0 mm 0.36 in9.1 mm
09:39 AM 58.5°F14.7°C 58.5°F14.7°C 100% 2.0 mph S3.2 kmh S -- 29.87 in1011.5 mb 0.10 in2.5 mm 0.00 in0.0 mm 0.36 in9.1 mm
09:44 AM 58.6°F14.8°C 58.6°F14.8°C 100% 2.0 mph S3.2 kmh S -- 29.88 in1011.9 mb 0.10 in2.5 mm 0.00 in0.0 mm 0.40 in10.2 mm
09:49 AM 58.5°F14.7°C 58.5°F14.7°C 100% 7.0 mph S11.3 kmh S -- 29.89 in1012.2 mb 0.12 in3.0 mm 0.24 in6.1 mm 0.42 in10.7 mm
09:54 AM 58.5°F14.7°C 58.5°F14.7°C 100% 2.0 mph WNW3.2 kmh WNW -- 29.89 in1012.2 mb 0.14 in3.6 mm 0.24 in6.1 mm 0.45 in11.4 mm
09:59 AM 58.4°F14.7°C 58.5°F14.7°C 100% 7.0 mph ENE11.3 kmh ENE -- 29.88 in1011.9 mb 0.15 in3.8 mm 0.12 in3.0 mm 0.46 in11.7 mm
10:03 AM 58.3°F14.6°C 58.3°F14.6°C 100% 4.0 mph SW6.4 kmh SW -- 29.88 in1011.9 mb 0.14 in3.6 mm 0.00 in0.0 mm 0.47 in11.9 mm
10:09 AM 58.3°F14.6°C 58.3°F14.6°C 100% 3.0 mph SSE4.8 kmh SSE -- 29.88 in1011.9 mb 0.15 in3.8 mm 0.10 in2.5 mm 0.48 in12.2 mm
10:14 AM 58.1°F14.5°C 57.8°F14.3°C 99% 6.0 mph S9.7 kmh S -- 29.88 in1011.9 mb 0.14 in3.6 mm 0.00 in0.0 mm 0.49 in12.4 mm
10:19 AM 58.1°F14.5°C 57.8°F14.3°C 99% 3.0 mph SW4.8 kmh SW -- 29.88 in1011.9 mb 0.16 in4.1 mm 0.24 in6.1 mm 0.51 in13.0 mm
10:23 AM 58.0°F14.4°C 57.6°F14.2°C 99% 3.0 mph SE4.8 kmh SE -- 29.89 in1012.2 mb 0.17 in4.3 mm 0.15 in3.8 mm 0.52 in13.2 mm
10:29 AM 58.0°F14.4°C 57.6°F14.2°C 99% 1.0 mph E1.6 kmh E -- 29.88 in1011.9 mb 0.18 in4.6 mm 0.10 in2.5 mm 0.53 in13.5 mm
10:33 AM 58.0°F14.4°C 57.6°F14.2°C 99% 1.0 mph S1.6 kmh S -- 29.87 in1011.5 mb 0.14 in3.6 mm 0.00 in0.0 mm 0.54 in13.7 mm
10:39 AM 58.0°F14.4°C 57.4°F14.1°C 98% 2.0 mph SE3.2 kmh SE -- 29.87 in1011.5 mb 0.14 in3.6 mm 0.00 in0.0 mm 0.54 in13.7 mm
10:44 AM 58.2°F14.6°C 57.7°F14.3°C 98% 3.0 mph S4.8 kmh S -- 29.86 in1011.2 mb 0.11 in2.8 mm 0.00 in0.0 mm 0.55 in14.0 mm
10:48 AM 58.1°F14.5°C 57.2°F14.0°C 97% 6.0 mph S9.7 kmh S -- 29.87 in1011.5 mb 0.12 in3.0 mm 0.15 in3.8 mm 0.56 in14.2 mm
10:54 AM 58.5°F14.7°C 57.9°F14.4°C 98% 5.0 mph S8.0 kmh S -- 29.87 in1011.5 mb 0.09 in2.3 mm 0.00 in0.0 mm 0.56 in14.2 mm
10:58 AM 58.5°F14.7°C 57.6°F14.2°C 97% 5.0 mph S8.0 kmh S -- 29.87 in1011.5 mb 0.09 in2.3 mm 0.00 in0.0 mm 0.56 in14.2 mm
10:59 AM 58.5°F14.7°C 57.6°F14.2°C 97% 4.0 mph S6.4 kmh S -- 29.87 in1011.5 mb 0.09 in2.3 mm 0.00 in0.0 mm 0.56 in14.2 mm
11:04 AM 58.4°F14.7°C 57.6°F14.2°C 97% 6.0 mph SSW9.7 kmh SSW -- 29.87 in1011.5 mb 0.08 in2.0 mm 0.00 in0.0 mm 0.57 in14.5 mm
11:09 AM 58.7°F14.8°C 57.8°F14.3°C 97% 7.0 mph S11.3 kmh S -- 29.86 in1011.2 mb 0.09 in2.3 mm 0.12 in3.0 mm 0.58 in14.7 mm
11:14 AM 58.6°F14.8°C 57.8°F14.3°C 97% 5.0 mph S8.0 kmh S -- 29.85 in1010.8 mb 0.06 in1.5 mm 0.00 in0.0 mm 0.58 in14.7 mm
11:18 AM 58.7°F14.8°C 57.8°F14.3°C 97% 6.0 mph S9.7 kmh S -- 29.84 in1010.5 mb 0.06 in1.5 mm 0.00 in0.0 mm 0.58 in14.7 mm
11:24 AM 59.0°F15.0°C 58.1°F14.5°C 97% 5.0 mph S8.0 kmh S -- 29.84 in1010.5 mb 0.04 in1.0 mm 0.00 in0.0 mm 0.58 in14.7 mm
11:29 AM 59.2°F15.1°C 58.3°F14.6°C 97% 3.0 mph SSE4.8 kmh SSE -- 29.83 in1010.2 mb 0.04 in1.0 mm 0.00 in0.0 mm 0.58 in14.7 mm
11:34 AM 59.3°F15.2°C 58.5°F14.7°C 97% 3.0 mph S4.8 kmh S -- 29.82 in1009.8 mb 0.03 in0.8 mm 0.00 in0.0 mm 0.58 in14.7 mm
11:39 AM 59.6°F15.3°C 58.4°F14.7°C 96% 3.0 mph S4.8 kmh S -- 29.83 in1010.2 mb 0.03 in0.8 mm 0.00 in0.0 mm 0.58 in14.7 mm
11:44 AM 59.9°F15.5°C 58.7°F14.8°C 96% 4.0 mph S6.4 kmh S -- 29.84 in1010.5 mb 0.02 in0.5 mm 0.00 in0.0 mm 0.58 in14.7 mm
11:49 AM 60.0°F15.6°C 58.9°F14.9°C 96% 4.0 mph SSE6.4 kmh SSE -- 29.83 in1010.2 mb 0.02 in0.5 mm 0.00 in0.0 mm 0.58 in14.7 mm
11:54 AM 60.0°F15.6°C 58.9°F14.9°C 96% 4.0 mph S6.4 kmh S -- 29.81 in1009.5 mb 0.01 in0.3 mm 0.00 in0.0 mm 0.58 in14.7 mm
11:58 AM 60.1°F15.6°C 58.6°F14.8°C 95% 3.0 mph S4.8 kmh S -- 29.81 in1009.5 mb 0.01 in0.3 mm 0.00 in0.0 mm 0.58 in14.7 mm
12:03 PM 60.1°F15.6°C 58.6°F14.8°C 95% 2.0 mph S3.2 kmh S -- 29.80 in1009.1 mb 0.00 in0.0 mm 0.00 in0.0 mm 0.58 in14.7 mm
12:09 PM 59.9°F15.5°C 58.5°F14.7°C 95% 3.0 mph SSW4.8 kmh SSW -- 29.80 in1009.1 mb 0.00 in0.0 mm 0.00 in0.0 mm 0.58 in14.7 mm
12:14 PM 59.9°F15.5°C 58.2°F14.6°C 94% 3.0 mph S4.8 kmh S -- 29.81 in1009.5 mb 0.00 in0.0 mm 0.00 in0.0 mm 0.58 in14.7 mm
12:18 PM 59.9°F15.5°C 58.2°F14.6°C 94% 3.0 mph S4.8 kmh S -- 29.81 in1009.5 mb 0.00 in0.0 mm 0.00 in0.0 mm 0.58 in14.7 mm
12:24 PM 60.1°F15.6°C 58.6°F14.8°C 95% 3.0 mph W4.8 kmh W -- 29.81 in1009.5 mb 0.00 in0.0 mm 0.00 in0.0 mm 0.58 in14.7 mm
12:29 PM 60.3°F15.7°C 58.8°F14.9°C 95% 3.0 mph SW4.8 kmh SW -- 29.83 in1010.2 mb 0.00 in0.0 mm 0.00 in0.0 mm 0.58 in14.7 mm
12:34 PM 60.5°F15.8°C 58.7°F14.8°C 94% 3.0 mph S4.8 kmh S -- 29.84 in1010.5 mb 0.00 in0.0 mm 0.00 in0.0 mm 0.58 in14.7 mm
12:38 PM 60.6°F15.9°C 58.9°F14.9°C 94% 6.0 mph SSW9.7 kmh SSW -- 29.83 in1010.2 mb 0.00 in0.0 mm 0.00 in0.0 mm 0.58 in14.7 mm
12:44 PM 60.4°F15.8°C 58.7°F14.8°C 94% 1.0 mph S1.6 kmh S -- 29.83 in1010.2 mb 0.00 in0.0 mm 0.00 in0.0 mm 0.58 in14.7 mm
12:49 PM 60.5°F15.8°C 58.7°F14.8°C 94% 5.0 mph SSE8.0 kmh SSE -- 29.82 in1009.8 mb 0.00 in0.0 mm 0.00 in0.0 mm 0.58 in14.7 mm
12:54 PM 60.7°F15.9°C 58.9°F14.9°C 94% 3.0 mph S4.8 kmh S -- 29.82 in1009.8 mb 0.00 in0.0 mm 0.00 in0.0 mm 0.58 in14.7 mm
12:58 PM 60.7°F15.9°C 58.9°F14.9°C 94% 7.0 mph S11.3 kmh S -- 29.81 in1009.5 mb 0.00 in0.0 mm 0.00 in0.0 mm 0.58 in14.7 mm
01:04 PM 60.8°F16.0°C 59.0°F15.0°C 94% 3.0 mph S4.8 kmh S -- 29.80 in1009.1 mb 0.00 in0.0 mm 0.00 in0.0 mm 0.58 in14.7 mm
01:08 PM 60.8°F16.0°C 59.0°F15.0°C 94% 5.0 mph SSE8.0 kmh SSE -- 29.79 in1008.8 mb 0.00 in0.0 mm 0.00 in0.0 mm 0.58 in14.7 mm
01:14 PM 60.6°F15.9°C 59.2°F15.1°C 95% 7.0 mph SSW11.3 kmh SSW -- 29.79 in1008.8 mb 0.01 in0.3 mm 0.10 in2.5 mm 0.59 in15.0 mm
01:18 PM 60.5°F15.8°C 59.0°F15.0°C 95% 2.0 mph W3.2 kmh W -- 29.79 in1008.8 mb 0.01 in0.3 mm 0.00 in0.0 mm 0.59 in15.0 mm
01:24 PM 60.4°F15.8°C 59.0°F15.0°C 95% 9.0 mph S14.5 kmh S -- 29.80 in1009.1 mb 0.01 in0.3 mm 0.00 in0.0 mm 0.59 in15.0 mm
01:29 PM 60.2°F15.7°C 58.8°F14.9°C 95% 2.0 mph SSW3.2 kmh SSW -- 29.80 in1009.1 mb 0.02 in0.5 mm 0.12 in3.0 mm 0.60 in15.2 mm
01:33 PM 60.2°F15.7°C 59.1°F15.1°C 96% 2.0 mph SSE3.2 kmh SSE -- 29.81 in1009.5 mb 0.04 in1.0 mm 0.30 in7.6 mm 0.62 in15.7 mm
01:38 PM 60.3°F15.7°C 59.1°F15.1°C 96% 6.0 mph S9.7 kmh S -- 29.80 in1009.1 mb 0.04 in1.0 mm 0.00 in0.0 mm 0.62 in15.7 mm
01:44 PM 60.4°F15.8°C 59.3°F15.2°C 96% 4.0 mph S6.4 kmh S -- 29.80 in1009.1 mb 0.04 in1.0 mm 0.00 in0.0 mm 0.62 in15.7 mm
01:49 PM 60.7°F15.9°C 59.5°F15.3°C 96% 4.0 mph SSW6.4 kmh SSW -- 29.79 in1008.8 mb 0.04 in1.0 mm 0.00 in0.0 mm 0.62 in15.7 mm
01:54 PM 60.9°F16.1°C 59.8°F15.4°C 96% 4.0 mph SW6.4 kmh SW -- 29.79 in1008.8 mb 0.04 in1.0 mm 0.00 in0.0 mm 0.62 in15.7 mm
01:59 PM 61.0°F16.1°C 59.8°F15.4°C 96% 3.0 mph S4.8 kmh S -- 29.79 in1008.8 mb 0.04 in1.0 mm 0.00 in0.0 mm 0.62 in15.7 mm
02:04 PM 60.9°F16.1°C 59.8°F15.4°C 96% 3.0 mph S4.8 kmh S -- 29.80 in1009.1 mb 0.03 in0.8 mm 0.00 in0.0 mm 0.62 in15.7 mm
02:09 PM 61.0°F16.1°C 59.5°F15.3°C 95% 3.0 mph SSW4.8 kmh SSW -- 29.80 in1009.1 mb 0.03 in0.8 mm 0.00 in0.0 mm 0.62 in15.7 mm
02:14 PM 61.0°F16.1°C 59.5°F15.3°C 95% 3.0 mph SSE4.8 kmh SSE -- 29.78 in1008.5 mb 0.03 in0.8 mm 0.00 in0.0 mm 0.62 in15.7 mm
02:18 PM 61.1°F16.2°C 59.7°F15.4°C 95% 3.0 mph S4.8 kmh S -- 29.79 in1008.8 mb 0.03 in0.8 mm 0.00 in0.0 mm 0.62 in15.7 mm
02:23 PM 61.1°F16.2°C 60.0°F15.6°C 96% 3.0 mph SW4.8 kmh SW -- 29.80 in1009.1 mb 0.02 in0.5 mm 0.00 in0.0 mm 0.63 in16.0 mm
02:29 PM 61.1°F16.2°C 60.0°F15.6°C 96% 2.0 mph S3.2 kmh S -- 29.81 in1009.5 mb 0.02 in0.5 mm 0.00 in0.0 mm 0.63 in16.0 mm
02:34 PM 61.1°F16.2°C 59.7°F15.4°C 95% 3.0 mph SE4.8 kmh SE -- 29.81 in1009.5 mb 0.01 in0.3 mm 0.00 in0.0 mm 0.63 in16.0 mm
02:38 PM 61.3°F16.3°C 59.9°F15.5°C 95% 10.0 mph S16.1 kmh S -- 29.81 in1009.5 mb 0.01 in0.3 mm 0.00 in0.0 mm 0.63 in16.0 mm
02:44 PM 61.5°F16.4°C 60.1°F15.6°C 95% 6.0 mph S9.7 kmh S -- 29.82 in1009.8 mb 0.01 in0.3 mm 0.00 in0.0 mm 0.63 in16.0 mm
02:48 PM 61.4°F16.3°C 59.9°F15.5°C 95% 5.0 mph SW8.0 kmh SW -- 29.82 in1009.8 mb 0.01 in0.3 mm 0.00 in0.0 mm 0.63 in16.0 mm
02:54 PM 61.6°F16.4°C 59.8°F15.4°C 94% 3.0 mph SE4.8 kmh SE -- 29.81 in1009.5 mb 0.01 in0.3 mm 0.00 in0.0 mm 0.63 in16.0 mm
02:58 PM 61.6°F16.4°C 59.8°F15.4°C 94% 2.0 mph W3.2 kmh W -- 29.80 in1009.1 mb 0.01 in0.3 mm 0.00 in0.0 mm 0.63 in16.0 mm
03:04 PM 61.7°F16.5°C 59.9°F15.5°C 94% 6.0 mph SSE9.7 kmh SSE -- 29.81 in1009.5 mb 0.01 in0.3 mm 0.00 in0.0 mm 0.63 in16.0 mm
03:09 PM 61.8°F16.6°C 60.1°F15.6°C 94% 3.0 mph S4.8 kmh S -- 29.81 in1009.5 mb 0.01 in0.3 mm 0.00 in0.0 mm 0.63 in16.0 mm
03:14 PM 61.9°F16.6°C 60.1°F15.6°C 94% 8.0 mph SW12.9 kmh SW -- 29.82 in1009.8 mb 0.00 in0.0 mm 0.00 in0.0 mm 0.63 in16.0 mm
03:18 PM 62.0°F16.7°C 60.3°F15.7°C 94% 3.0 mph SSE4.8 kmh SSE -- 29.83 in1010.2 mb 0.00 in0.0 mm 0.00 in0.0 mm 0.63 in16.0 mm
03:24 PM 62.1°F16.7°C 60.3°F15.7°C 94% 4.0 mph NW6.4 kmh NW -- 29.84 in1010.5 mb 0.00 in0.0 mm 0.00 in0.0 mm 0.63 in16.0 mm
03:28 PM 62.5°F16.9°C 60.7°F15.9°C 94% 3.0 mph SW4.8 kmh SW -- 29.84 in1010.5 mb 0.00 in0.0 mm 0.00 in0.0 mm 0.63 in16.0 mm
03:34 PM 62.6°F17.0°C 60.5°F15.8°C 93% 4.0 mph SW6.4 kmh SW -- 29.83 in1010.2 mb 0.00 in0.0 mm 0.00 in0.0 mm 0.63 in16.0 mm
03:38 PM 62.7°F17.1°C 60.7°F15.9°C 93% 8.0 mph SW12.9 kmh SW -- 29.83 in1010.2 mb 0.00 in0.0 mm 0.00 in0.0 mm 0.63 in16.0 mm
03:44 PM 62.9°F17.2°C 60.9°F16.1°C 93% 5.0 mph S8.0 kmh S -- 29.83 in1010.2 mb 0.00 in0.0 mm 0.00 in0.0 mm 0.63 in16.0 mm
03:49 PM 62.9°F17.2°C 60.6°F15.9°C 92% 2.0 mph S3.2 kmh S -- 29.82 in1009.8 mb 0.00 in0.0 mm 0.00 in0.0 mm 0.63 in16.0 mm
03:53 PM 62.9°F17.2°C 60.9°F16.1°C 93% 3.0 mph WNW4.8 kmh WNW -- 29.82 in1009.8 mb 0.00 in0.0 mm 0.00 in0.0 mm 0.63 in16.0 mm
03:58 PM 62.9°F17.2°C 60.9°F16.1°C 93% 2.0 mph SSE3.2 kmh SSE -- 29.82 in1009.8 mb 0.00 in0.0 mm 0.00 in0.0 mm 0.63 in16.0 mm
04:04 PM 63.0°F17.2°C 60.6°F15.9°C 92% 5.0 mph SW8.0 kmh SW -- 29.82 in1009.8 mb 0.00 in0.0 mm 0.00 in0.0 mm 0.63 in16.0 mm
04:09 PM 63.1°F17.3°C 60.8°F16.0°C 92% 4.0 mph S6.4 kmh S -- 29.83 in1010.2 mb 0.00 in0.0 mm 0.00 in0.0 mm 0.63 in16.0 mm
04:14 PM 63.1°F17.3°C 60.8°F16.0°C 92% 8.0 mph SSW12.9 kmh SSW -- 29.83 in1010.2 mb 0.00 in0.0 mm 0.00 in0.0 mm 0.63 in16.0 mm
04:19 PM 63.1°F17.3°C 60.8°F16.0°C 92% 2.0 mph S3.2 kmh S -- 29.84 in1010.5 mb 0.00 in0.0 mm 0.00 in0.0 mm 0.63 in16.0 mm
04:23 PM 63.2°F17.3°C 60.8°F16.0°C 92% 6.0 mph S9.7 kmh S -- 29.84 in1010.5 mb 0.00 in0.0 mm 0.00 in0.0 mm 0.63 in16.0 mm
04:29 PM 63.3°F17.4°C 60.6°F15.9°C 91% 4.0 mph WSW6.4 kmh WSW -- 29.84 in1010.5 mb 0.00 in0.0 mm 0.00 in0.0 mm 0.63 in16.0 mm
04:34 PM 63.4°F17.4°C 60.6°F15.9°C 91% 4.0 mph SW6.4 kmh SW -- 29.84 in1010.5 mb 0.00 in0.0 mm 0.00 in0.0 mm 0.63 in16.0 mm
04:39 PM 63.4°F17.4°C 60.6°F15.9°C 91% 2.0 mph SSE3.2 kmh SSE -- 29.84 in1010.5 mb 0.00 in0.0 mm 0.00 in0.0 mm 0.63 in16.0 mm
04:43 PM 63.3°F17.4°C 60.6°F15.9°C 91% 3.0 mph NW4.8 kmh NW -- 29.85 in1010.8 mb 0.00 in0.0 mm 0.00 in0.0 mm 0.63 in16.0 mm
04:49 PM 63.3°F17.4°C 60.6°F15.9°C 91% 2.0 mph NW3.2 kmh NW -- 29.85 in1010.8 mb 0.00 in0.0 mm 0.00 in0.0 mm 0.63 in16.0 mm
04:53 PM 63.2°F17.3°C 60.1°F15.6°C 90% 7.0 mph SSE11.3 kmh SSE -- 29.86 in1011.2 mb 0.00 in0.0 mm 0.00 in0.0 mm 0.63 in16.0 mm
04:58 PM 63.1°F17.3°C 60.4°F15.8°C 91% 3.0 mph NW4.8 kmh NW -- 29.86 in1011.2 mb 0.00 in0.0 mm 0.00 in0.0 mm 0.63 in16.0 mm
05:04 PM 63.1°F17.3°C 60.4°F15.8°C 91% 3.0 mph SW4.8 kmh SW -- 29.86 in1011.2 mb 0.00 in0.0 mm 0.00 in0.0 mm 0.63 in16.0 mm
05:08 PM 63.0°F17.2°C 60.3°F15.7°C 91% 2.0 mph SW3.2 kmh SW -- 29.86 in1011.2 mb 0.00 in0.0 mm 0.00 in0.0 mm 0.63 in16.0 mm
05:14 PM 62.8°F17.1°C 60.1°F15.6°C 91% 1.0 mph S1.6 kmh S -- 29.86 in1011.2 mb 0.00 in0.0 mm 0.00 in0.0 mm 0.63 in16.0 mm
05:18 PM 62.7°F17.1°C 60.1°F15.6°C 91% 1.0 mph W1.6 kmh W -- 29.87 in1011.5 mb 0.00 in0.0 mm 0.00 in0.0 mm 0.63 in16.0 mm
05:24 PM 62.6°F17.0°C 59.9°F15.5°C 91% 1.0 mph S1.6 kmh S -- 29.88 in1011.9 mb 0.00 in0.0 mm 0.00 in0.0 mm 0.63 in16.0 mm
05:29 PM 62.5°F16.9°C 60.0°F15.6°C 92% 5.0 mph SW8.0 kmh SW -- 29.87 in1011.5 mb 0.00 in0.0 mm 0.00 in0.0 mm 0.63 in16.0 mm
05:33 PM 62.4°F16.9°C 60.0°F15.6°C 92% 1.0 mph S1.6 kmh S -- 29.87 in1011.5 mb 0.00 in0.0 mm 0.00 in0.0 mm 0.63 in16.0 mm
05:38 PM 62.3°F16.8°C 59.9°F15.5°C 92% 2.0 mph S3.2 kmh S -- 29.87 in1011.5 mb 0.00 in0.0 mm 0.00 in0.0 mm 0.63 in16.0 mm
05:44 PM 62.0°F16.7°C 59.7°F15.4°C 92% 3.0 mph NNE4.8 kmh NNE -- 29.88 in1011.9 mb 0.00 in0.0 mm 0.00 in0.0 mm 0.63 in16.0 mm
05:49 PM 61.6°F16.4°C 58.8°F14.9°C 91% 11.0 mph N17.7 kmh N -- 29.90 in1012.5 mb 0.00 in0.0 mm 0.00 in0.0 mm 0.63 in16.0 mm
05:54 PM 61.4°F16.3°C 55.8°F13.2°C 82% 8.0 mph NE12.9 kmh NE -- 29.90 in1012.5 mb 0.00 in0.0 mm 0.00 in0.0 mm 0.63 in16.0 mm
05:59 PM 61.0°F16.1°C 54.7°F12.6°C 80% 6.0 mph NW9.7 kmh NW -- 29.91 in1012.9 mb 0.00 in0.0 mm 0.00 in0.0 mm 0.63 in16.0 mm
06:04 PM 60.4°F15.8°C 54.5°F12.5°C 81% 5.0 mph N8.0 kmh N -- 29.91 in1012.9 mb 0.00 in0.0 mm 0.00 in0.0 mm 0.63 in16.0 mm
06:09 PM 60.1°F15.6°C 53.5°F11.9°C 79% 7.0 mph N11.3 kmh N -- 29.92 in1013.2 mb 0.00 in0.0 mm 0.00 in0.0 mm 0.63 in16.0 mm
06:14 PM 60.2°F15.7°C 53.3°F11.8°C 78% 11.0 mph NNW17.7 kmh NNW -- 29.92 in1013.2 mb 0.00 in0.0 mm 0.00 in0.0 mm 0.63 in16.0 mm
06:18 PM 59.8°F15.4°C 52.8°F11.6°C 78% 10.0 mph NW16.1 kmh NW -- 29.93 in1013.5 mb 0.00 in0.0 mm 0.00 in0.0 mm 0.63 in16.0 mm
06:24 PM 59.5°F15.3°C 51.9°F11.1°C 76% 11.0 mph N17.7 kmh N -- 29.93 in1013.5 mb 0.00 in0.0 mm 0.00 in0.0 mm 0.63 in16.0 mm
06:29 PM 59.2°F15.1°C 51.9°F11.1°C 77% 7.0 mph N11.3 kmh N -- 29.95 in1014.2 mb 0.00 in0.0 mm 0.00 in0.0 mm 0.63 in16.0 mm
06:33 PM 58.7°F14.8°C 52.1°F11.2°C 79% 7.0 mph N11.3 kmh N -- 29.95 in1014.2 mb 0.00 in0.0 mm 0.00 in0.0 mm 0.63 in16.0 mm
06:34 PM 58.7°F14.8°C 52.1°F11.2°C 79% 3.0 mph NW4.8 kmh NW -- 29.95 in1014.2 mb 0.00 in0.0 mm 0.00 in0.0 mm 0.63 in16.0 mm
06:38 PM 58.2°F14.6°C 51.4°F10.8°C 78% 6.0 mph NW9.7 kmh NW -- 29.95 in1014.2 mb 0.00 in0.0 mm 0.00 in0.0 mm 0.63 in16.0 mm
06:44 PM 57.7°F14.3°C 49.8°F9.9°C 75% 12.0 mph NW19.3 kmh NW -- 29.96 in1014.6 mb 0.00 in0.0 mm 0.00 in0.0 mm 0.63 in16.0 mm
06:48 PM 57.2°F14.0°C 47.8°F8.8°C 71% 8.0 mph WNW12.9 kmh WNW -- 29.97 in1014.9 mb 0.00 in0.0 mm 0.00 in0.0 mm 0.63 in16.0 mm
06:53 PM 56.7°F13.7°C 47.3°F8.5°C 71% 12.0 mph N19.3 kmh N -- 29.97 in1014.9 mb 0.00 in0.0 mm 0.00 in0.0 mm 0.63 in16.0 mm
06:59 PM 56.0°F13.3°C 45.8°F7.7°C 69% 10.0 mph NW16.1 kmh NW -- 29.98 in1015.2 mb 0.00 in0.0 mm 0.00 in0.0 mm 0.63 in16.0 mm
07:03 PM 55.6°F13.1°C 45.5°F7.5°C 69% 7.0 mph N11.3 kmh N -- 29.99 in1015.6 mb 0.00 in0.0 mm 0.00 in0.0 mm 0.63 in16.0 mm
07:09 PM 55.2°F12.9°C 45.5°F7.5°C 70% 6.0 mph NNW9.7 kmh NNW -- 29.99 in1015.6 mb 0.00 in0.0 mm 0.00 in0.0 mm 0.63 in16.0 mm
07:13 PM 54.7°F12.6°C 45.0°F7.2°C 70% 4.0 mph W6.4 kmh W -- 30.00 in1015.9 mb 0.00 in0.0 mm 0.00 in0.0 mm 0.63 in16.0 mm
07:19 PM 54.3°F12.4°C 44.7°F7.1°C 70% 7.0 mph NW11.3 kmh NW -- 30.00 in1015.9 mb 0.00 in0.0 mm 0.00 in0.0 mm 0.63 in16.0 mm
07:24 PM 54.1°F12.3°C 44.5°F6.9°C 70% 8.0 mph NW12.9 kmh NW -- 30.01 in1016.3 mb 0.00 in0.0 mm 0.00 in0.0 mm 0.63 in16.0 mm
07:28 PM 53.7°F12.1°C 43.8°F6.6°C 69% 6.0 mph NNE9.7 kmh NNE -- 30.01 in1016.3 mb 0.00 in0.0 mm 0.00 in0.0 mm 0.63 in16.0 mm
07:33 PM 53.5°F11.9°C 43.0°F6.1°C 68% 8.0 mph WNW12.9 kmh WNW -- 30.01 in1016.3 mb 0.00 in0.0 mm 0.00 in0.0 mm 0.63 in16.0 mm
07:39 PM 53.1°F11.7°C 41.9°F5.5°C 66% 11.0 mph NW17.7 kmh NW -- 30.01 in1016.3 mb 0.00 in0.0 mm 0.00 in0.0 mm 0.63 in16.0 mm
07:44 PM 53.0°F11.7°C 41.9°F5.5°C 66% 5.0 mph NNW8.0 kmh NNW -- 30.01 in1016.3 mb 0.00 in0.0 mm 0.00 in0.0 mm 0.63 in16.0 mm
07:49 PM 52.8°F11.6°C 42.1°F5.6°C 67% 11.0 mph NW17.7 kmh NW -- 30.02 in1016.6 mb 0.00 in0.0 mm 0.00 in0.0 mm 0.63 in16.0 mm
07:54 PM 52.7°F11.5°C 41.9°F5.5°C 67% 11.0 mph N17.7 kmh N -- 30.03 in1016.9 mb 0.00 in0.0 mm 0.00 in0.0 mm 0.63 in16.0 mm
07:59 PM 52.4°F11.3°C 42.4°F5.8°C 69% 5.0 mph NNE8.0 kmh NNE -- 30.03 in1016.9 mb 0.00 in0.0 mm 0.00 in0.0 mm 0.63 in16.0 mm
08:04 PM 52.2°F11.2°C 42.2°F5.7°C 69% 4.0 mph N6.4 kmh N -- 30.03 in1016.9 mb 0.00 in0.0 mm 0.00 in0.0 mm 0.63 in16.0 mm
08:09 PM 52.0°F11.1°C 42.4°F5.8°C 70% 10.0 mph NE16.1 kmh NE -- 30.03 in1016.9 mb 0.00 in0.0 mm 0.00 in0.0 mm 0.63 in16.0 mm
08:13 PM 51.7°F10.9°C 41.3°F5.2°C 68% 8.0 mph NW12.9 kmh NW -- 30.03 in1016.9 mb 0.00 in0.0 mm 0.00 in0.0 mm 0.63 in16.0 mm
08:19 PM 51.7°F10.9°C 41.3°F5.2°C 68% 5.0 mph N8.0 kmh N -- 30.04 in1017.3 mb 0.00 in0.0 mm 0.00 in0.0 mm 0.63 in16.0 mm
08:24 PM 51.5°F10.8°C 40.7°F4.8°C 67% 5.0 mph NW8.0 kmh NW -- 30.04 in1017.3 mb 0.00 in0.0 mm 0.00 in0.0 mm 0.63 in16.0 mm
08:29 PM 51.4°F10.8°C 40.7°F4.8°C 67% 8.0 mph N12.9 kmh N -- 30.05 in1017.6 mb 0.00 in0.0 mm 0.00 in0.0 mm 0.63 in16.0 mm
08:33 PM 51.2°F10.7°C 40.2°F4.6°C 66% 7.0 mph NNE11.3 kmh NNE -- 30.05 in1017.6 mb 0.00 in0.0 mm 0.00 in0.0 mm 0.63 in16.0 mm
08:39 PM 50.8°F10.4°C 40.1°F4.5°C 67% 8.0 mph W12.9 kmh W -- 30.05 in1017.6 mb 0.00 in0.0 mm 0.00 in0.0 mm 0.63 in16.0 mm
08:43 PM 50.7°F10.4°C 40.8°F4.9°C 69% 6.0 mph N9.7 kmh N -- 30.05 in1017.6 mb 0.00 in0.0 mm 0.00 in0.0 mm 0.63 in16.0 mm
08:48 PM 50.4°F10.2°C 40.5°F4.7°C 69% 5.0 mph N8.0 kmh N -- 30.06 in1017.9 mb 0.00 in0.0 mm 0.00 in0.0 mm 0.63 in16.0 mm
08:53 PM 50.2°F10.1°C 40.3°F4.6°C 69% 9.0 mph NNW14.5 kmh NNW -- 30.05 in1017.6 mb 0.00 in0.0 mm 0.00 in0.0 mm 0.63 in16.0 mm
08:58 PM 50.0°F10.0°C 39.7°F4.3°C 68% 6.0 mph N9.7 kmh N -- 30.06 in1017.9 mb 0.00 in0.0 mm 0.00 in0.0 mm 0.63 in16.0 mm
09:04 PM 49.9°F9.9°C 39.6°F4.2°C 68% 4.0 mph N6.4 kmh N -- 30.06 in1017.9 mb 0.00 in0.0 mm 0.00 in0.0 mm 0.63 in16.0 mm
09:08 PM 49.9°F9.9°C 39.2°F4.0°C 67% 13.0 mph NNW20.9 kmh NNW -- 30.07 in1018.3 mb 0.00 in0.0 mm 0.00 in0.0 mm 0.63 in16.0 mm
09:14 PM 49.9°F9.9°C 39.2°F4.0°C 67% 5.0 mph N8.0 kmh N -- 30.08 in1018.6 mb 0.00 in0.0 mm 0.00 in0.0 mm 0.63 in16.0 mm
09:19 PM 49.8°F9.9°C 39.6°F4.2°C 68% 6.0 mph NW9.7 kmh NW -- 30.08 in1018.6 mb 0.00 in0.0 mm 0.00 in0.0 mm 0.63 in16.0 mm
09:23 PM 49.5°F9.7°C 38.8°F3.8°C 67% 6.0 mph NW9.7 kmh NW -- 30.09 in1019.0 mb 0.00 in0.0 mm 0.00 in0.0 mm 0.63 in16.0 mm
09:28 PM 49.4°F9.7°C 38.8°F3.8°C 67% 6.0 mph NNW9.7 kmh NNW -- 30.09 in1019.0 mb 0.00 in0.0 mm 0.00 in0.0 mm 0.63 in16.0 mm
09:34 PM 49.2°F9.6°C 38.7°F3.7°C 67% 3.0 mph N4.8 kmh N -- 30.09 in1019.0 mb 0.00 in0.0 mm 0.00 in0.0 mm 0.63 in16.0 mm
09:39 PM 48.9°F9.4°C 36.8°F2.7°C 63% 4.0 mph NW6.4 kmh NW -- 30.09 in1019.0 mb 0.00 in0.0 mm 0.00 in0.0 mm 0.63 in16.0 mm
09:44 PM 48.7°F9.3°C 36.6°F2.6°C 63% 6.0 mph N9.7 kmh N -- 30.10 in1019.3 mb 0.00 in0.0 mm 0.00 in0.0 mm 0.63 in16.0 mm
09:49 PM 48.3°F9.1°C 36.2°F2.3°C 63% 7.0 mph NW11.3 kmh NW -- 30.09 in1019.0 mb 0.00 in0.0 mm 0.00 in0.0 mm 0.63 in16.0 mm
09:54 PM 48.1°F8.9°C 35.1°F1.7°C 61% 6.0 mph NE9.7 kmh NE -- 30.10 in1019.3 mb 0.00 in0.0 mm 0.00 in0.0 mm 0.63 in16.0 mm
09:59 PM 47.9°F8.8°C 34.9°F1.6°C 61% 8.0 mph NW12.9 kmh NW -- 30.10 in1019.3 mb 0.00 in0.0 mm 0.00 in0.0 mm 0.63 in16.0 mm
10:04 PM 47.9°F8.8°C 34.9°F1.6°C 61% 8.0 mph N12.9 kmh N -- 30.11 in1019.6 mb 0.00 in0.0 mm 0.00 in0.0 mm 0.63 in16.0 mm
10:08 PM 47.8°F8.8°C 35.7°F2.1°C 63% 4.0 mph NW6.4 kmh NW -- 30.11 in1019.6 mb 0.00 in0.0 mm 0.00 in0.0 mm 0.63 in16.0 mm
10:13 PM 47.4°F8.6°C 35.4°F1.9°C 63% 9.0 mph NNW14.5 kmh NNW -- 30.11 in1019.6 mb 0.00 in0.0 mm 0.00 in0.0 mm 0.63 in16.0 mm
10:19 PM 47.3°F8.5°C 34.8°F1.6°C 62% 11.0 mph N17.7 kmh N -- 30.12 in1020.0 mb 0.00 in0.0 mm 0.00 in0.0 mm 0.63 in16.0 mm
10:24 PM 47.2°F8.4°C 33.8°F1.0°C 60% 5.0 mph N8.0 kmh N -- 30.12 in1020.0 mb 0.00 in0.0 mm 0.00 in0.0 mm 0.63 in16.0 mm
10:28 PM 46.9°F8.3°C 33.2°F0.7°C 59% 11.0 mph N17.7 kmh N -- 30.12 in1020.0 mb 0.00 in0.0 mm 0.00 in0.0 mm 0.63 in16.0 mm
10:34 PM 46.7°F8.2°C 33.5°F0.8°C 60% 12.0 mph NNE19.3 kmh NNE -- 30.13 in1020.3 mb 0.00 in0.0 mm 0.00 in0.0 mm 0.63 in16.0 mm
10:38 PM 46.6°F8.1°C 33.3°F0.7°C 60% 4.0 mph N6.4 kmh N -- 30.13 in1020.3 mb 0.00 in0.0 mm 0.00 in0.0 mm 0.63 in16.0 mm
10:44 PM 46.4°F8.0°C 32.7°F0.4°C 59% 6.0 mph NNW9.7 kmh NNW -- 30.13 in1020.3 mb 0.00 in0.0 mm 0.00 in0.0 mm 0.63 in16.0 mm
10:48 PM 46.3°F7.9°C 33.8°F1.0°C 62% 6.0 mph NNW9.7 kmh NNW -- 30.14 in1020.7 mb 0.00 in0.0 mm 0.00 in0.0 mm 0.63 in16.0 mm
10:53 PM 46.2°F7.9°C 33.4°F0.8°C 61% 6.0 mph NE9.7 kmh NE -- 30.14 in1020.7 mb 0.00 in0.0 mm 0.00 in0.0 mm 0.63 in16.0 mm
10:59 PM 45.9°F7.7°C 33.0°F0.6°C 61% 6.0 mph NW9.7 kmh NW -- 30.14 in1020.7 mb 0.00 in0.0 mm 0.00 in0.0 mm 0.63 in16.0 mm
11:04 PM 45.8°F7.7°C 33.4°F0.8°C 62% 7.0 mph NNE11.3 kmh NNE -- 30.14 in1020.7 mb 0.00 in0.0 mm 0.00 in0.0 mm 0.63 in16.0 mm
11:08 PM 45.7°F7.6°C 33.7°F0.9°C 63% 7.0 mph NNE11.3 kmh NNE -- 30.13 in1020.3 mb 0.00 in0.0 mm 0.00 in0.0 mm 0.63 in16.0 mm
11:14 PM 45.5°F7.5°C 33.1°F0.6°C 62% 4.0 mph N6.4 kmh N -- 30.15 in1021.0 mb 0.00 in0.0 mm 0.00 in0.0 mm 0.63 in16.0 mm
11:19 PM 45.4°F7.4°C 32.9°F0.5°C 62% 6.0 mph NE9.7 kmh NE -- 30.15 in1021.0 mb 0.00 in0.0 mm 0.00 in0.0 mm 0.63 in16.0 mm
11:23 PM 45.4°F7.4°C 32.9°F0.5°C 62% 4.0 mph NNE6.4 kmh NNE -- 30.15 in1021.0 mb 0.00 in0.0 mm 0.00 in0.0 mm 0.63 in16.0 mm
11:28 PM 45.2°F7.3°C 33.6°F0.9°C 64% 9.0 mph NNW14.5 kmh NNW -- 30.15 in1021.0 mb 0.00 in0.0 mm 0.00 in0.0 mm 0.63 in16.0 mm
11:34 PM 45.0°F7.2°C 32.6°F0.3°C 62% 11.0 mph NE17.7 kmh NE -- 30.16 in1021.3 mb 0.00 in0.0 mm 0.00 in0.0 mm 0.63 in16.0 mm
11:39 PM 44.8°F7.1°C 32.4°F0.2°C 62% 12.0 mph NNE19.3 kmh NNE -- 30.16 in1021.3 mb 0.00 in0.0 mm 0.00 in0.0 mm 0.63 in16.0 mm
11:43 PM 44.6°F7.0°C 32.2°F0.1°C 62% 9.0 mph NW14.5 kmh NW -- 30.15 in1021.0 mb 0.00 in0.0 mm 0.00 in0.0 mm 0.63 in16.0 mm
11:48 PM 44.5°F6.9°C 32.1°F0.1°C 62% 6.0 mph NW9.7 kmh NW -- 30.16 in1021.3 mb 0.00 in0.0 mm 0.00 in0.0 mm 0.42 in10.7 mm
11:54 PM 44.4°F6.9°C 32.5°F0.3°C 63% 6.0 mph N9.7 kmh N -- 30.16 in1021.3 mb 0.00 in0.0 mm 0.00 in0.0 mm 0.42 in10.7 mm
11:59 PM 44.2°F6.8°C 31.9°F-0.1°C 62% 10.0 mph NE16.1 kmh NE -- 30.17 in1021.7 mb 0.00 in0.0 mm 0.00 in0.0 mm 0.42 in10.7 mm